Time;durP1;ratioP1;P1;durP2;ratioP2;P2;SDS_P1;SDS_P2;PMS_P1;PMS_P2;Temp;Humidity;BMP_temperature;BMP_pressure;BME280_temperature;BME280_humidity;BME280_pressure;Samples;Min_cycle;Max_cycle;Signal;HPM_P1;HPM_P2
2022/04/29 00:01:21;;;;;;;5.90;4.30;;;;;;;14.02;46.12;101181.65;117479;1183;23605;-47
2022/04/29 00:03:53;;;;;;;6.20;4.30;;;;;;;14.03;46.11;101180.91;117535;1186;21844;-56
2022/04/29 00:06:25;;;;;;;6.60;4.70;;;;;;;14.03;46.08;101173.52;117394;1183;24697;-47
2022/04/29 00:08:54;;;;;;;7.00;4.40;;;;;;;14.02;46.08;101175.46;117410;1184;21976;-47
2022/04/29 00:11:22;;;;;;;6.10;4.60;;;;;;;14.03;46.35;101174.73;117486;1185;24163;-56
2022/04/29 00:13:51;;;;;;;5.70;4.10;;;;;;;14.07;46.22;101178.58;117514;1185;23472;-54
2022/04/29 00:16:25;;;;;;;7.00;4.10;;;;;;;14.07;46.30;101175.04;117469;1183;23469;-55
2022/04/29 00:18:54;;;;;;;5.90;4.50;;;;;;;14.09;46.34;101175.90;117433;1184;23485;-55
2022/04/29 00:21:23;;;;;;;5.90;4.40;;;;;;;14.09;46.32;101178.90;117413;1185;23445;-56
2022/04/29 00:23:53;;;;;;;7.20;4.70;;;;;;;14.10;46.41;101175.17;117424;1185;23547;-47
2022/04/29 00:26:23;;;;;;;5.20;4.30;;;;;;;14.11;46.55;101171.63;117363;1184;22960;-47
2022/04/29 00:28:51;;;;;;;5.90;4.40;;;;;;;14.13;46.35;101170.72;117378;1185;23470;-46
2022/04/29 00:31:20;;;;;;;5.10;3.90;;;;;;;14.14;46.52;101171.77;117334;1185;24159;-56
2022/04/29 00:33:49;;;;;;;6.90;4.10;;;;;;;14.13;46.49;101173.17;117486;1185;22365;-46
2022/04/29 00:36:19;;;;;;;5.90;4.80;;;;;;;14.15;46.50;101174.92;117389;1185;24744;-47
2022/04/29 00:38:48;;;;;;;6.60;4.30;;;;;;;14.13;46.38;101172.83;117441;1185;23644;-47
2022/04/29 00:41:19;;;;;;;4.70;3.60;;;;;;;14.11;46.47;101168.98;117422;1185;21842;-56
2022/04/29 00:43:58;;;;;;;7.10;4.10;;;;;;;14.12;46.60;101172.86;117384;1185;21858;-47
2022/04/29 00:46:27;;;;;;;5.70;3.80;;;;;;;14.11;46.56;101173.73;117411;1185;23472;-54
2022/04/29 00:48:58;;;;;;;7.60;4.40;;;;;;;14.10;46.61;101172.70;117342;1184;21843;-56
2022/04/29 00:51:26;;;;;;;6.90;4.10;;;;;;;14.12;46.57;101172.69;117432;1188;24171;-47
2022/04/29 00:53:55;;;;;;;6.80;4.20;;;;;;;14.11;46.61;101170.22;117400;1185;23449;-56
2022/04/29 00:56:27;;;;;;;4.80;3.60;;;;;;;14.13;46.70;101175.83;117393;1186;22994;-56
2022/04/29 00:59:02;;;;;;;7.90;4.20;;;;;;;14.14;46.57;101173.88;117488;1184;21823;-47
2022/04/29 01:01:32;;;;;;;6.00;3.80;;;;;;;14.16;46.79;101169.45;117350;1185;24197;-47
2022/04/29 01:04:02;;;;;;;10.50;3.90;;;;;;;14.17;46.76;101165.72;117380;1186;23629;-47
2022/04/29 01:06:32;;;;;;;5.90;3.80;;;;;;;14.17;46.69;101166.77;117420;1185;22922;-56
2022/04/29 01:09:02;;;;;;;6.40;3.80;;;;;;;14.18;46.80;101168.35;117326;1185;21969;-47
2022/04/29 01:11:31;;;;;;;5.50;3.70;;;;;;;14.18;46.76;101169.23;117379;1188;23468;-47
2022/04/29 01:14:02;;;;;;;;;;;;;;;14.20;46.72;101164.98;117398;1184;22924;-56
2022/04/29 01:16:33;;;;;;;7.50;3.70;;;;;;;14.20;46.60;101161.08;117418;1185;22922;-47
2022/04/29 01:19:02;;;;;;;5.40;3.90;;;;;;;14.19;46.68;101161.27;117367;1185;23563;-47
2022/04/29 01:21:31;;;;;;;4.80;3.30;;;;;;;14.20;46.64;101157.39;117423;1185;23593;-47
2022/04/29 01:24:03;;;;;;;7.00;3.60;;;;;;;14.21;46.80;101153.66;117346;1185;21858;-47
2022/04/29 01:26:31;;;;;;;4.70;3.40;;;;;;;14.21;46.82;101153.66;117447;1185;22102;-56
2022/04/29 01:28:59;;;;;;;6.60;3.30;;;;;;;14.20;46.77;101153.49;117409;1184;23471;-56
2022/04/29 01:31:28;;;;;;;5.90;3.10;;;;;;;14.20;46.90;101152.96;117243;1186;23475;-47
2022/04/29 01:33:56;;;;;;;5.40;3.50;;;;;;;14.20;46.86;101152.95;117475;1185;24170;-46
2022/04/29 01:36:24;;;;;;;4.90;3.00;;;;;;;14.20;46.79;101151.90;117381;1186;23458;-55
2022/04/29 01:38:53;;;;;;;7.60;3.90;;;;;;;14.22;46.87;101147.29;117354;1188;23158;-56
2022/04/29 01:41:22;;;;;;;4.90;3.00;;;;;;;14.22;46.77;101145.70;117392;1185;23452;-56
2022/04/29 01:43:50;;;;;;;4.10;3.30;;;;;;;14.23;46.87;101147.98;117477;1185;22989;-47
2022/04/29 01:46:20;;;;;;;5.40;3.20;;;;;;;14.22;46.91;101142.34;117400;1185;22616;-56
2022/04/29 01:48:48;;;;;;;4.30;2.90;;;;;;;14.22;46.89;101143.05;117371;1185;24166;-46
2022/04/29 01:51:20;;;;;;;6.20;2.70;;;;;;;14.21;46.88;101145.00;117345;1185;23448;-47
2022/04/29 01:53:53;;;;;;;6.40;3.40;;;;;;;14.21;46.89;101142.35;117420;1185;23471;-47
2022/04/29 01:56:32;;;;;;;7.90;2.80;;;;;;;14.21;46.82;101139.38;117379;1185;23445;-56
2022/04/29 01:59:01;;;;;;;4.20;3.10;;;;;;;14.20;46.89;101137.97;117388;1184;23567;-54
2022/04/29 02:01:29;;;;;;;5.40;3.10;;;;;;;14.16;46.91;101137.14;117386;1184;21858;-47
2022/04/29 02:04:01;;;;;;;4.90;3.10;;;;;;;14.12;46.87;101135.78;117423;1185;23563;-46
2022/04/29 02:06:29;;;;;;;5.70;3.40;;;;;;;14.10;46.83;101135.65;117318;1185;23550;-48
2022/04/29 02:08:58;;;;;;;4.20;2.60;;;;;;;14.09;46.83;101136.19;117413;1185;23496;-49
2022/04/29 02:11:30;;;;;;;4.70;3.20;;;;;;;14.07;46.78;101138.34;117481;1185;21858;-56
2022/04/29 02:14:01;;;;;;;6.90;2.90;;;;;;;14.03;46.92;101136.11;117393;1184;22614;-47
2022/04/29 02:16:29;;;;;;;6.60;2.90;;;;;;;14.00;46.85;101135.96;117384;1185;24224;-47
2022/04/29 02:19:02;;;;;;;4.50;2.90;;;;;;;13.98;46.98;101135.63;117377;1186;23507;-46
2022/04/29 02:21:32;;;;;;;5.50;2.70;;;;;;;13.97;46.94;101139.69;117520;1186;21845;-55
2022/04/29 02:24:00;;;;;;;4.40;2.70;;;;;;;13.95;46.84;101137.96;117495;1183;23471;-46
2022/04/29 02:26:29;;;;;;;6.20;2.60;;;;;;;13.95;46.89;101139.38;117476;1185;23584;-46
2022/04/29 02:28:58;;;;;;;6.80;2.80;;;;;;;13.93;46.96;101139.76;117539;1185;21848;-46
2022/04/29 02:31:30;;;;;;;3.90;2.20;;;;;;;13.93;46.88;101141.17;117484;1186;22915;-54
2022/04/29 02:33:59;;;;;;;7.10;2.70;;;;;;;13.95;46.96;101139.04;117534;1186;23445;-54
2022/04/29 02:36:28;;;;;;;5.50;2.10;;;;;;;13.94;47.01;101135.34;117531;1185;24241;-54
2022/04/29 02:38:57;;;;;;;5.60;2.50;;;;;;;13.91;46.96;101136.27;117495;1186;24243;-46
2022/04/29 02:41:26;;;;;;;4.50;2.50;;;;;;;13.89;47.02;101136.14;117487;1186;23039;-47
2022/04/29 02:43:54;;;;;;;5.50;2.50;;;;;;;13.88;46.88;101137.55;117488;1186;23449;-46
2022/04/29 02:46:23;;;;;;;3.90;2.50;;;;;;;13.86;47.01;101139.16;117496;1186;22888;-46
2022/04/29 02:48:52;;;;;;;7.50;2.20;;;;;;;13.87;46.93;101140.21;118364;1183;21972;-46
2022/04/29 02:51:20;;;;;;;4.20;2.40;;;;;;;13.88;47.05;101137.20;117576;1186;22083;-46
2022/04/29 02:53:51;;;;;;;5.10;2.00;;;;;;;13.89;46.95;101133.65;117527;1183;23496;-55
2022/04/29 02:56:19;;;;;;;3.90;2.30;;;;;;;13.91;47.07;101134.15;117555;1183;21842;-47
2022/04/29 02:58:53;;;;;;;3.00;2.20;;;;;;;13.91;46.97;101136.26;117530;1186;24169;-54
2022/04/29 03:01:20;;;;;;;4.00;2.20;;;;;;;13.91;47.05;101143.50;117455;1185;21855;-46
2022/04/29 03:03:49;;;;;;;4.60;2.50;;;;;;;13.90;47.03;101143.70;117487;1186;23469;-54
2022/04/29 03:06:22;;;;;;;3.40;2.00;;;;;;;13.89;46.97;101147.77;117535;1184;23584;-54
2022/04/29 03:08:51;;;;;;;3.90;2.40;;;;;;;13.89;47.09;101147.07;117498;1186;22941;-47
2022/04/29 03:11:19;;;;;;;4.20;2.10;;;;;;;13.90;47.12;101154.29;117521;1183;23445;-47
2022/04/29 03:13:50;;;;;;;3.20;1.90;;;;;;;13.91;47.07;101154.59;117503;1182;21848;-54
2022/04/29 03:16:23;;;;;;;4.00;2.50;;;;;;;13.93;47.09;101152.99;117488;1186;21845;-54
2022/04/29 03:18:52;;;;;;;7.50;2.50;;;;;;;13.95;47.14;101154.39;117481;1184;23449;-46
2022/04/29 03:21:21;;;;;;;5.10;2.30;;;;;;;13.96;47.15;101149.43;117465;1185;23445;-46
2022/04/29 03:23:55;;;;;;;4.60;2.10;;;;;;;13.98;47.13;101151.00;117493;1186;23648;-54
2022/04/29 03:26:26;;;;;;;;;;;;;;;14.00;47.06;101149.20;117525;1186;21830;-46
2022/04/29 03:28:54;;;;;;;3.10;1.80;;;;;;;14.01;47.14;101149.89;117508;1186;23445;-47
2022/04/29 03:31:22;;;;;;;3.50;2.00;;;;;;;14.02;47.11;101145.46;117520;1184;23472;-56
2022/04/29 03:33:54;;;;;;;4.60;2.10;;;;;;;14.02;47.13;101145.81;117552;1186;22922;-55
2022/04/29 03:36:23;;;;;;;5.40;2.20;;;;;;;14.04;47.15;101150.38;117485;1186;23445;-47
2022/04/29 03:38:51;;;;;;;5.70;1.90;;;;;;;14.05;47.11;101150.02;117513;1179;23210;-56
2022/04/29 03:41:21;;;;;;;2.80;1.90;;;;;;;14.07;47.12;101151.58;117452;1186;22921;-46
2022/04/29 03:43:54;;;;;;;5.00;2.30;;;;;;;14.08;47.16;101149.09;117526;1183;21837;-56
2022/04/29 03:46:23;;;;;;;4.40;2.20;;;;;;;14.11;47.16;101146.56;117558;1185;21859;-55
2022/04/29 03:51:40;;;;;;;5.40;1.90;;;;;;;14.16;47.11;101149.14;117518;1185;23444;-47
2022/04/29 03:54:09;;;;;;;4.60;2.70;;;;;;;14.18;47.14;101154.59;117540;1186;23586;-57
2022/04/29 03:56:38;;;;;;;7.10;2.30;;;;;;;14.20;47.27;101155.27;117484;1185;24139;-48
2022/04/29 03:59:12;;;;;;;10.00;2.80;;;;;;;14.24;47.25;101160.67;117397;1183;22315;-56
2022/04/29 04:01:43;;;;;;;4.20;2.00;;;;;;;14.28;47.20;101168.91;117460;1184;23442;-56
2022/04/29 04:04:13;;;;;;;4.80;2.10;;;;;;;14.31;47.24;101169.39;117515;1183;23452;-56
2022/04/29 04:06:51;;;;;;;6.40;2.10;;;;;;;14.35;47.28;101169.69;117541;1183;21887;-56
2022/04/29 04:09:21;;;;;;;4.60;2.50;;;;;;;14.40;47.26;101171.73;117524;1186;23579;-47
2022/04/29 04:11:50;;;;;;;8.90;2.10;;;;;;;14.45;47.28;101173.06;117479;1185;21849;-55
2022/04/29 04:14:19;;;;;;;7.40;2.10;;;;;;;14.49;47.28;101175.48;117528;1185;24695;-56
2022/04/29 04:16:48;;;;;;;5.10;2.10;;;;;;;14.53;47.25;101174.70;117566;1185;23445;-47
2022/04/29 04:19:17;;;;;;;3.80;2.20;;;;;;;14.56;47.25;101165.83;117538;1185;23443;-46
2022/04/29 04:21:45;;;;;;;3.80;1.90;;;;;;;14.58;47.22;101159.44;117519;1184;23445;-57
2022/04/29 04:24:14;;;;;;;6.60;2.10;;;;;;;14.61;47.28;101151.97;117458;1179;22636;-47
2022/04/29 04:26:45;;;;;;;5.90;1.90;;;;;;;14.65;47.22;101148.38;117344;1185;23474;-47
2022/04/29 04:29:15;;;;;;;4.20;2.10;;;;;;;14.68;47.17;101149.74;117507;1185;24279;-47
2022/04/29 04:31:43;;;;;;;5.30;1.90;;;;;;;14.73;47.33;101157.11;117487;1185;23445;-55
2022/04/29 04:37:01;;;;;;;3.70;1.70;;;;;;;14.83;47.33;101162.23;117407;1185;23471;-47
2022/04/29 04:39:30;;;;;;;3.50;1.60;;;;;;;14.87;47.34;101166.04;117442;1184;22682;-55
2022/04/29 04:41:58;;;;;;;4.80;1.90;;;;;;;14.92;47.33;101170.38;117426;1180;23725;-55
2022/04/29 04:44:30;;;;;;;5.20;1.70;;;;;;;14.95;47.20;101174.73;117354;1185;23512;-47
2022/04/29 04:46:59;;;;;;;2.90;1.90;;;;;;;14.98;47.24;101180.16;117561;1186;23471;-54
2022/04/29 04:49:31;;;;;;;4.50;1.60;;;;;;;15.01;47.25;101179.23;117537;1184;21853;-49
2022/04/29 04:51:59;;;;;;;4.70;1.70;;;;;;;15.04;47.26;101182.70;117562;1186;21859;-53
2022/04/29 04:54:29;;;;;;;3.50;2.00;;;;;;;15.06;47.07;101184.27;117519;1185;21858;-55
2022/04/29 04:56:58;;;;;;;2.40;1.40;;;;;;;15.06;47.16;101185.86;117596;1186;24194;-47
2022/04/29 04:59:26;;;;;;;2.10;1.30;;;;;;;15.06;47.13;101187.45;117562;1186;21860;-55
2022/04/29 05:01:57;;;;;;;2.70;1.40;;;;;;;15.06;47.18;101188.51;117483;1186;24249;-55
2022/04/29 05:04:27;;;;;;;5.70;1.70;;;;;;;15.06;47.08;101183.91;117503;1185;21845;-47
2022/04/29 05:06:56;;;;;;;4.50;1.50;;;;;;;15.09;47.05;101186.34;117501;1186;24695;-54
2022/04/29 05:09:24;;;;;;;6.00;1.60;;;;;;;15.10;47.12;101187.21;117527;1184;22934;-47
2022/04/29 05:11:55;;;;;;;2.90;1.90;;;;;;;15.09;47.09;101188.45;117516;1186;21850;-47
2022/04/29 05:14:37;;;;;;;4.40;1.40;;;;;;;15.09;47.04;101189.69;117484;1185;23563;-47
2022/04/29 05:17:05;;;;;;;3.90;1.90;;;;;;;15.10;47.00;101189.85;117428;1184;23547;-47
2022/04/29 05:19:54;;;;;;;3.80;1.90;;;;;;;15.10;47.11;101196.04;117321;1188;21973;-54
2022/04/29 05:22:29;;;;;;;3.80;1.70;;;;;;;15.11;47.01;101199.56;117363;1185;23647;-56
2022/04/29 05:25:13;;;;;;;2.80;1.50;;;;;;;15.11;47.07;101205.91;117354;1186;23547;-56
2022/04/29 05:27:41;;;;;;;4.10;1.70;;;;;;;15.13;47.02;101213.67;117451;1180;21882;-55
2022/04/29 05:30:12;;;;;;;2.70;1.80;;;;;;;15.14;47.03;101216.11;117451;1184;22969;-55
2022/04/29 05:32:41;;;;;;;3.30;1.70;;;;;;;15.14;46.98;101218.95;117423;1186;23557;-56
2022/04/29 05:35:09;;;;;;;2.40;1.50;;;;;;;15.14;47.01;101222.30;117402;1184;23643;-48
2022/04/29 05:37:40;;;;;;;3.80;1.70;;;;;;;15.15;47.05;101225.66;117372;1186;23475;-55
2022/04/29 05:42:56;;;;;;;2.70;1.70;;;;;;;15.13;46.95;101226.21;117359;1185;24159;-55
2022/04/29 05:45:25;;;;;;;4.70;1.70;;;;;;;15.13;46.98;101229.75;117300;1185;23554;-55
2022/04/29 05:47:57;;;;;;;2.30;1.50;;;;;;;15.12;46.91;101231.70;117332;1186;23446;-50
2022/04/29 05:50:25;;;;;;;3.00;1.50;;;;;;;15.13;47.00;101227.11;117356;1186;22923;-48
2022/04/29 05:52:55;;;;;;;2.20;1.50;;;;;;;15.15;47.02;101226.00;117329;1185;23564;-55
2022/04/29 05:55:24;;;;;;;2.20;1.40;;;;;;;15.15;46.95;101229.71;117385;1185;22925;-55
2022/04/29 05:58:12;;;;;;;5.50;1.90;;;;;;;15.18;46.95;101234.24;117386;1185;21840;-47
2022/04/29 06:00:41;;;;;;;3.10;1.60;;;;;;;15.23;47.05;101234.34;117374;1185;23550;-49
2022/04/29 06:03:10;;;;;;;3.60;1.50;;;;;;;15.27;47.07;101239.04;117376;1188;21845;-55
2022/04/29 06:05:39;;;;;;;3.20;1.90;;;;;;;15.30;47.00;101239.16;117413;1186;23553;-47
2022/04/29 06:08:10;;;;;;;;;;;;;;;15.36;47.09;101238.54;117297;1185;22601;-54
2022/04/29 06:10:49;;;;;;;3.90;2.00;;;;;;;15.40;47.11;101242.34;117315;1186;22483;-47
2022/04/29 06:13:18;;;;;;;2.50;1.60;;;;;;;15.45;47.16;101245.80;117254;1185;24721;-47
2022/04/29 06:15:47;;;;;;;3.60;1.70;;;;;;;15.51;47.06;101248.33;117383;1185;23573;-54
2022/04/29 06:18:21;;;;;;;2.90;1.40;;;;;;;15.55;47.11;101250.73;117288;1186;24172;-47
2022/04/29 06:20:50;;;;;;;4.10;1.50;;;;;;;15.59;47.14;101254.89;117443;1186;23445;-55
2022/04/29 06:23:18;;;;;;;2.60;1.50;;;;;;;15.63;47.07;101261.38;117536;1179;23445;-47
2022/04/29 06:25:47;;;;;;;2.30;1.40;;;;;;;15.67;47.07;101265.73;117402;1186;21845;-54
2022/04/29 06:28:17;;;;;;;4.50;1.90;;;;;;;15.70;47.03;101272.73;117368;1185;22243;-47
2022/04/29 06:30:50;;;;;;;4.10;1.60;;;;;;;15.72;47.02;101274.98;117397;1186;21849;-55
2022/04/29 06:33:21;;;;;;;9.20;1.40;;;;;;;15.75;47.06;101278.12;117409;1184;22896;-47
2022/04/29 06:35:50;;;;;;;3.20;1.70;;;;;;;15.77;47.08;101276.48;118252;1183;23557;-55
2022/04/29 06:38:19;;;;;;;2.20;1.40;;;;;;;15.78;47.09;101281.42;117542;1185;21958;-54
2022/04/29 06:40:50;;;;;;;;;;;;;;;15.81;47.06;101283.14;117364;1185;23519;-54
2022/04/29 06:43:19;;;;;;;2.50;1.40;;;;;;;15.83;47.04;101288.05;117590;1185;21858;-48
2022/04/29 06:45:50;;;;;;;2.40;1.40;;;;;;;15.84;47.01;101291.94;117547;1185;21847;-54
2022/04/29 06:48:18;;;;;;;2.50;1.80;;;;;;;15.84;46.99;101288.92;117396;1185;21880;-55
2022/04/29 06:50:47;;;;;;;2.20;1.60;;;;;;;15.84;47.02;101289.45;117372;1188;24157;-54
2022/04/29 06:53:15;;;;;;;2.90;1.40;;;;;;;15.83;47.11;101290.19;117443;1184;24050;-54
2022/04/29 06:55:47;;;;;;;3.40;1.50;;;;;;;15.81;46.98;101287.04;117373;1180;24168;-53
2022/04/29 06:58:16;;;;;;;2.70;1.20;;;;;;;15.78;46.95;101287.79;117320;1186;24169;-46
2022/04/29 07:00:45;;;;;;;3.80;1.40;;;;;;;15.77;46.94;101288.88;117290;1186;23522;-47
2022/04/29 07:03:13;;;;;;;2.50;1.40;;;;;;;15.74;46.93;101292.10;117401;1186;22038;-47
2022/04/29 07:05:42;;;;;;;3.90;2.00;;;;;;;15.73;46.98;101293.91;117434;1185;23547;-47
2022/04/29 07:08:13;;;;;;;3.60;1.60;;;;;;;15.71;46.92;101295.19;117364;1180;23662;-47
2022/04/29 07:10:42;;;;;;;2.20;1.40;;;;;;;15.70;47.00;101300.34;117460;1186;23468;-47
2022/04/29 07:13:13;;;;;;;;;;;;;;;15.68;46.97;101301.80;117496;1186;23821;-55
2022/04/29 07:15:43;;;;;;;2.70;1.40;;;;;;;15.68;47.07;101306.05;117501;1184;22834;-55
2022/04/29 07:18:12;;;;;;;4.00;2.00;;;;;;;15.69;47.04;101307.43;117438;1183;21851;-54
2022/04/29 07:20:42;;;;;;;2.60;1.50;;;;;;;15.67;47.01;101311.54;117440;1185;24163;-47
2022/04/29 07:23:10;;;;;;;2.60;1.40;;;;;;;15.67;47.04;101319.14;117506;1185;21890;-55
2022/04/29 07:25:39;;;;;;;3.50;1.60;;;;;;;15.68;47.00;101324.95;117371;1185;22021;-54
2022/04/29 07:28:10;;;;;;;3.30;1.60;;;;;;;15.72;47.04;101332.50;117454;1186;22936;-47
2022/04/29 07:30:43;;;;;;;6.50;2.10;;;;;;;15.78;47.13;101336.99;117407;1185;21839;-54
2022/04/29 07:33:11;;;;;;;3.60;2.20;;;;;;;15.84;47.13;101339.35;117507;1186;23544;-54
2022/04/29 07:44:06;;;;;;;3.00;1.50;;;;;;;16.11;47.24;101346.66;117404;1185;24151;-54
2022/04/29 07:46:38;;;;;;;3.80;1.80;;;;;;;16.18;47.41;101347.75;117445;1186;23563;-54
2022/04/29 07:49:07;;;;;;;2.50;1.70;;;;;;;16.28;47.36;101351.46;117419;1182;21837;-52
2022/04/29 07:51:39;;;;;;;3.10;1.70;;;;;;;16.37;47.36;101348.95;117461;1185;23449;-56
2022/04/29 07:54:12;;;;;;;5.00;1.50;;;;;;;16.43;47.28;101346.54;117373;1185;23640;-48
2022/04/29 07:56:40;;;;;;;3.60;1.70;;;;;;;16.48;47.20;101349.09;117508;1186;24155;-48
2022/04/29 07:59:09;;;;;;;4.30;1.90;;;;;;;16.55;47.33;101351.61;117540;1185;22349;-54
2022/04/29 08:01:43;;;;;;;2.90;1.50;;;;;;;16.61;47.28;101353.07;117496;1186;23516;-47
2022/04/29 08:04:13;;;;;;;2.90;1.60;;;;;;;16.67;47.39;101353.99;117390;1185;22921;-53
2022/04/29 08:06:44;;;;;;;4.00;1.50;;;;;;;16.74;47.24;101356.67;117428;1185;21877;-54
2022/04/29 08:09:33;;;;;;;4.50;2.10;;;;;;;16.83;47.33;101360.01;117383;1185;23445;-47
2022/04/29 08:12:06;;;;;;;3.20;1.90;;;;;;;16.90;47.39;101354.38;117457;1185;22910;-47
2022/04/29 08:14:34;;;;;;;4.00;1.70;;;;;;;16.95;47.34;101345.75;117439;1185;24184;-46
2022/04/29 08:17:21;;;;;;;4.60;1.90;;;;;;;17.01;47.28;101340.83;117399;1185;23443;-54
2022/04/29 08:19:50;;;;;;;2.60;1.70;;;;;;;17.09;47.38;101340.30;117413;1186;23551;-54
2022/04/29 08:22:18;;;;;;;2.90;1.60;;;;;;;17.15;47.29;101347.25;117508;1185;22892;-54
2022/04/29 08:24:46;;;;;;;2.90;1.70;;;;;;;17.24;47.41;101348.10;117491;1183;23553;-47
2022/04/29 08:27:18;;;;;;;2.50;1.80;;;;;;;17.31;47.34;101348.11;117397;1185;21849;-47
2022/04/29 08:29:57;;;;;;;3.50;1.80;;;;;;;17.37;47.35;101344.58;117409;1186;23480;-47
2022/04/29 08:32:27;;;;;;;6.10;1.90;;;;;;;17.43;47.36;101343.73;117355;1185;21880;-54
2022/04/29 08:34:55;;;;;;;3.40;1.60;;;;;;;17.48;47.24;101344.66;117479;1185;24170;-47
2022/04/29 08:37:24;;;;;;;3.30;1.70;;;;;;;17.51;47.25;101340.14;117453;1186;21925;-47
2022/04/29 08:39:53;;;;;;;4.30;1.90;;;;;;;17.53;47.14;101337.59;117447;1185;21851;-54
2022/04/29 08:42:23;;;;;;;3.00;1.70;;;;;;;17.55;47.17;101335.79;117424;1185;24142;-47
2022/04/29 08:44:52;;;;;;;4.40;2.10;;;;;;;17.52;46.99;101338.00;117390;1185;21892;-47
2022/04/29 08:47:20;;;;;;;4.80;2.10;;;;;;;17.45;46.90;101337.27;117436;1186;21849;-54
2022/04/29 08:49:52;;;;;;;3.50;1.90;;;;;;;17.37;47.17;101333.95;117449;1185;23563;-54
2022/04/29 08:52:21;;;;;;;4.00;2.20;;;;;;;17.33;47.16;101332.42;117387;1186;24158;-55
2022/04/29 09:00:27;;;;;;;5.60;2.90;;;;;;;17.07;46.97;101333.25;117483;1186;23445;-46
2022/04/29 09:02:55;;;;;;;3.90;1.90;;;;;;;16.96;47.00;101329.79;117468;1185;23557;-54
2022/04/29 09:05:46;;;;;;;3.20;1.60;;;;;;;16.87;46.89;101328.38;117396;1185;21848;-55
2022/04/29 09:08:15;;;;;;;3.60;2.10;;;;;;;16.80;46.85;101324.45;117446;1185;24138;-47
2022/04/29 09:10:51;;;;;;;8.20;1.90;;;;;;;16.73;46.91;101326.21;117427;1186;24155;-55
2022/04/29 09:13:27;;;;;;;4.00;1.70;;;;;;;16.62;46.97;101327.70;117381;1186;23560;-48
2022/04/29 09:16:12;;;;;;;3.50;1.60;;;;;;;16.54;47.03;101328.23;117481;1183;23695;-48
2022/04/29 09:18:42;;;;;;;5.10;2.20;;;;;;;16.45;46.97;101330.20;117512;1183;23448;-48
2022/04/29 09:21:32;;;;;;;4.70;2.00;;;;;;;16.42;46.93;101330.11;117409;1185;21847;-48
2022/04/29 09:24:07;;;;;;;6.70;1.90;;;;;;;16.33;46.90;101328.15;117332;1185;23551;-49
2022/04/29 09:26:41;;;;;;;3.60;1.40;;;;;;;16.27;46.98;101331.81;117347;1185;23554;-59
2022/04/29 09:29:13;;;;;;;3.90;1.90;;;;;;;16.20;47.01;101329.48;117458;1186;21848;-50
2022/04/29 09:32:10;;;;;;;5.20;2.00;;;;;;;16.13;46.99;101331.40;117380;1186;22930;-49
2022/04/29 09:34:54;;;;;;;3.40;1.50;;;;;;;16.05;46.95;101329.08;117361;1185;21849;-49
2022/04/29 09:37:26;;;;;;;4.60;1.90;;;;;;;15.95;47.08;101326.78;117396;1185;21989;-48
2022/04/29 09:40:04;;;;;;;5.60;1.80;;;;;;;15.89;47.06;101321.95;117389;1185;22726;-58
2022/04/29 09:42:35;;;;;;;4.60;1.80;;;;;;;15.83;47.15;101323.80;117488;1188;21858;-48
2022/04/29 09:45:14;;;;;;;5.30;2.10;;;;;;;15.77;47.05;101321.42;117454;1186;23551;-58
2022/04/29 09:47:43;;;;;;;5.00;2.10;;;;;;;15.72;47.21;101317.46;117422;1186;21846;-58
2022/04/29 09:50:11;;;;;;;5.40;2.30;;;;;;;15.67;47.29;101317.92;117449;1179;21912;-58
2022/04/29 09:52:44;;;;;;;3.50;1.90;;;;;;;15.60;47.13;101315.73;117408;1184;24155;-48
2022/04/29 09:55:14;;;;;;;6.00;3.30;;;;;;;15.55;47.23;101313.89;117491;1185;22811;-58
2022/04/29 09:58:00;;;;;;;5.90;3.10;;;;;;;15.51;47.23;101318.37;117449;1185;21852;-49
2022/04/29 10:00:29;;;;;;;5.60;2.30;;;;;;;15.48;47.32;101317.36;117419;1186;23445;-58
2022/04/29 10:03:03;;;;;;;3.30;1.80;;;;;;;15.45;47.38;101318.66;117483;1186;21861;-48
2022/04/29 10:05:32;;;;;;;3.40;2.10;;;;;;;15.42;47.42;101317.66;117490;1185;21849;-58
2022/04/29 10:08:00;;;;;;;6.80;2.20;;;;;;;15.39;47.35;101322.30;117301;1186;23448;-58
2022/04/29 10:10:30;;;;;;;16.10;3.90;;;;;;;15.38;47.37;101322.69;117338;1186;24178;-58
2022/04/29 10:13:00;;;;;;;5.40;2.50;;;;;;;15.35;47.51;101325.38;117423;1181;23012;-48
2022/04/29 10:15:29;;;;;;;4.70;2.00;;;;;;;15.36;47.43;101326.77;117426;1185;21840;-49
2022/04/29 10:23:32;;;;;;;9.30;2.20;;;;;;;15.38;47.43;101331.86;117411;1186;23459;-48
2022/04/29 10:26:01;;;;;;;4.80;2.10;;;;;;;15.35;47.50;101334.39;117353;1183;23471;-58
2022/04/29 10:28:30;;;;;;;4.10;2.20;;;;;;;15.33;47.38;101332.47;117363;1186;21862;-57
2022/04/29 10:31:06;;;;;;;4.70;2.10;;;;;;;15.31;47.45;101330.73;117347;1185;22520;-48
2022/04/29 10:33:36;;;;;;;7.30;2.30;;;;;;;15.28;47.47;101332.38;117480;1185;21852;-48
2022/04/29 10:36:08;;;;;;;7.90;3.30;;;;;;;15.25;47.44;101332.60;117486;1186;21849;-55
2022/04/29 10:38:39;;;;;;;10.20;3.90;;;;;;;15.20;47.49;101328.64;117540;1183;21859;-58
2022/04/29 10:41:13;;;;;;;8.30;3.30;;;;;;;15.18;47.53;101331.32;117444;1183;24223;-48
2022/04/29 10:43:51;;;;;;;7.70;3.30;;;;;;;15.16;47.58;101328.69;117461;1181;23011;-58
2022/04/29 10:46:20;;;;;;;8.00;3.40;;;;;;;15.12;47.61;101331.23;117436;1186;22157;-48
2022/04/29 10:48:53;;;;;;;8.20;3.00;;;;;;;15.10;47.61;101333.37;117392;1185;21882;-57
2022/04/29 10:51:25;;;;;;;10.70;2.50;;;;;;;15.10;47.71;101331.80;117441;1184;23592;-58
2022/04/29 10:53:57;;;;;;;8.70;2.00;;;;;;;15.09;47.64;101330.04;117415;1186;23446;-48
2022/04/29 10:56:30;;;;;;;7.70;2.70;;;;;;;15.07;47.72;101329.71;117372;1184;23554;-48
2022/04/29 10:59:10;;;;;;;9.00;2.50;;;;;;;15.05;47.76;101327.80;117387;1186;21858;-58
2022/04/29 11:01:40;;;;;;;6.70;2.40;;;;;;;15.01;47.83;101326.96;117484;1184;23633;-58
2022/04/29 11:04:15;;;;;;;6.20;2.30;;;;;;;14.99;47.96;101325.07;117481;1185;22722;-58
2022/04/29 11:06:47;;;;;;;5.60;2.30;;;;;;;14.99;47.81;101327.55;117340;1186;24166;-58
2022/04/29 11:09:47;;;;;;;5.70;2.30;;;;;;;15.00;47.92;101324.16;117390;1186;23551;-48
2022/04/29 11:12:40;;;;;;;6.80;2.60;;;;;;;15.02;47.92;101325.73;117551;1185;22617;-49
2022/04/29 11:15:15;;;;;;;5.30;2.50;;;;;;;15.03;48.01;101324.12;117404;1186;22655;-49
2022/04/29 11:17:44;;;;;;;6.30;2.80;;;;;;;15.06;48.02;101323.37;117346;1186;23456;-57
2022/04/29 11:20:17;;;;;;;6.20;2.30;;;;;;;15.03;48.05;101323.94;117408;1186;23646;-58
2022/04/29 11:25:58;;;;;;;11.50;3.00;;;;;;;15.05;47.97;101320.20;117381;1185;21925;-58
2022/04/29 11:28:27;;;;;;;11.30;2.50;;;;;;;15.06;48.05;101316.48;117445;1185;21875;-48
2022/04/29 11:31:04;;;;;;;11.20;2.40;;;;;;;15.05;48.08;101313.66;117421;1185;21901;-58
2022/04/29 11:33:33;;;;;;;6.30;2.30;;;;;;;15.06;48.13;101307.29;117437;1185;22652;-48
2022/04/29 11:36:12;;;;;;;9.30;2.50;;;;;;;15.07;48.14;101307.80;117336;1185;23043;-48
2022/04/29 11:38:46;;;;;;;8.80;2.70;;;;;;;15.09;48.21;101300.34;117319;1182;21843;-48
2022/04/29 11:41:22;;;;;;;7.80;2.00;;;;;;;15.11;48.27;101296.95;117426;1185;21849;-49
2022/04/29 11:43:51;;;;;;;12.10;2.80;;;;;;;15.17;48.41;101291.73;117411;1186;23453;-49
2022/04/29 11:46:20;;;;;;;5.80;2.40;;;;;;;15.23;48.46;101291.09;117523;1181;23625;-58
2022/04/29 11:48:52;;;;;;;10.70;2.90;;;;;;;15.28;48.44;101288.88;117475;1186;23550;-58
2022/04/29 11:51:21;;;;;;;9.00;3.30;;;;;;;15.38;48.47;101281.84;117516;1186;22312;-48
2022/04/29 11:54:04;;;;;;;7.70;2.40;;;;;;;15.45;48.66;101280.82;117443;1185;21990;-57
2022/04/29 11:56:33;;;;;;;6.60;3.30;;;;;;;15.54;48.71;101275.35;117499;1185;22869;-58
2022/04/29 11:59:08;;;;;;;7.60;3.80;;;;;;;15.60;48.78;101271.16;117511;1185;21859;-48
2022/04/29 12:01:37;;;;;;;5.70;3.70;;;;;;;15.67;48.79;101264.66;117549;1186;23550;-49
2022/04/29 12:04:06;;;;;;;5.40;3.20;;;;;;;15.74;48.78;101262.40;117467;1186;23464;-59
2022/04/29 12:06:35;;;;;;;6.30;3.20;;;;;;;15.79;48.77;101260.00;117490;1185;21849;-49